createdAt,value
2023-05-05T00:00:13.330Z,8.72
2023-05-05T00:02:18.349Z,8.67
2023-05-05T00:04:09.822Z,8.63
2023-05-05T00:06:01.363Z,8.60
2023-05-05T00:07:52.806Z,8.56
2023-05-05T00:09:44.524Z,8.52
2023-05-05T00:11:35.971Z,8.49
2023-05-05T00:13:27.136Z,8.47
2023-05-05T00:15:19.117Z,8.47
2023-05-05T00:17:10.538Z,8.46
2023-05-05T00:19:01.603Z,8.48
2023-05-05T00:20:52.790Z,8.48
2023-05-05T00:22:44.443Z,8.48
2023-05-05T00:24:36.021Z,8.49
2023-05-05T00:26:27.519Z,8.48
2023-05-05T00:28:19.156Z,8.46
2023-05-05T00:30:10.765Z,8.46
2023-05-05T00:32:03.459Z,8.44
2023-05-05T00:33:54.871Z,8.43
2023-05-05T00:35:46.323Z,8.42
2023-05-05T00:37:37.603Z,8.40
2023-05-05T00:39:29.052Z,8.41
2023-05-05T00:41:20.428Z,8.39
2023-05-05T00:43:13.008Z,8.38
2023-05-05T00:45:04.566Z,8.38
2023-05-05T00:46:56.592Z,8.37
2023-05-05T00:48:48.205Z,8.36
2023-05-05T00:50:39.950Z,8.35
2023-05-05T00:52:31.545Z,8.35
2023-05-05T00:54:23.166Z,8.35
2023-05-05T00:56:15.964Z,8.32
2023-05-05T00:58:08.000Z,8.36
2023-05-05T00:59:59.758Z,8.36
2023-05-05T01:01:51.367Z,8.36
2023-05-05T01:03:43.278Z,8.35
2023-05-05T01:05:59.000Z,8.33
2023-05-05T01:09:02.254Z,8.34
2023-05-05T01:10:58.217Z,8.28
2023-05-05T01:13:08.133Z,8.29
2023-05-05T01:15:11.172Z,8.26
2023-05-05T01:17:11.417Z,8.23
2023-05-05T01:19:17.476Z,8.22
2023-05-05T01:21:31.741Z,8.20
2023-05-05T01:24:00.932Z,8.18
2023-05-05T01:26:12.776Z,8.16
2023-05-05T01:28:24.777Z,8.15
2023-05-05T01:30:33.397Z,8.14
2023-05-05T01:32:37.183Z,8.13
2023-05-05T01:34:40.513Z,8.12
2023-05-05T01:37:15.618Z,8.11
2023-05-05T01:39:09.321Z,8.08
2023-05-05T01:41:08.233Z,8.05
2023-05-05T01:43:01.137Z,8.07
2023-05-05T01:44:53.484Z,8.06
2023-05-05T01:46:44.949Z,8.05
2023-05-05T01:48:38.918Z,8.03
2023-05-05T01:50:32.306Z,8.02
2023-05-05T01:52:24.128Z,8.04
2023-05-05T01:54:17.574Z,8.03
2023-05-05T01:56:10.285Z,8.03
2023-05-05T01:58:03.624Z,8.02
2023-05-05T01:59:56.255Z,8.00
2023-05-05T02:01:49.039Z,7.99
2023-05-05T02:03:42.063Z,7.98
2023-05-05T02:05:35.068Z,7.96
2023-05-05T02:07:27.836Z,7.93
2023-05-05T02:09:19.680Z,7.89
2023-05-05T02:20:27.255Z,7.83
2023-05-05T02:22:19.147Z,7.81
2023-05-05T02:24:11.528Z,7.78
2023-05-05T02:26:05.176Z,7.75
2023-05-05T02:27:58.463Z,7.74
2023-05-05T02:29:57.139Z,7.70
2023-05-05T02:31:56.073Z,7.70
2023-05-05T02:33:49.591Z,7.67
2023-05-05T02:35:42.354Z,7.65
2023-05-05T02:37:34.338Z,7.63
2023-05-05T02:39:31.417Z,7.62
2023-05-05T02:41:24.826Z,7.60
2023-05-05T02:43:19.712Z,7.58
2023-05-05T02:45:13.339Z,7.57
2023-05-05T02:47:05.439Z,7.56
2023-05-05T02:48:59.768Z,7.55
2023-05-05T02:50:51.035Z,7.53
2023-05-05T02:52:43.208Z,7.52
2023-05-05T02:54:34.947Z,7.51
2023-05-05T02:56:34.722Z,7.49
2023-05-05T02:58:46.884Z,7.46
2023-05-05T03:00:44.757Z,7.44
2023-05-05T03:03:00.720Z,7.43
2023-05-05T03:04:56.964Z,7.40
2023-05-05T03:06:51.253Z,7.38
2023-05-05T03:08:46.029Z,7.36
2023-05-05T03:10:48.078Z,7.33
2023-05-05T03:12:49.914Z,7.31
2023-05-05T03:14:43.380Z,7.29
2023-05-05T03:16:41.383Z,7.27
2023-05-05T03:18:37.758Z,7.26
2023-05-05T03:20:29.752Z,7.25
2023-05-05T03:22:21.264Z,7.25
2023-05-05T03:24:19.874Z,7.24
2023-05-05T03:26:11.334Z,7.22
2023-05-05T03:28:02.881Z,7.20
2023-05-05T03:29:54.911Z,7.18
2023-05-05T03:31:46.485Z,7.16
2023-05-05T03:33:38.386Z,7.15
2023-05-05T03:35:30.396Z,7.13
2023-05-05T03:37:22.036Z,7.12
2023-05-05T03:39:13.470Z,7.11
2023-05-05T03:41:04.865Z,7.10
2023-05-05T03:42:56.602Z,7.11
2023-05-05T03:44:47.988Z,7.10
2023-05-05T03:46:39.923Z,7.09
2023-05-05T03:48:31.820Z,7.09
2023-05-05T03:50:24.421Z,7.09
2023-05-05T03:52:16.376Z,7.11
2023-05-05T03:54:08.212Z,7.12
2023-05-05T03:55:59.472Z,7.13
2023-05-05T03:57:51.109Z,7.14
2023-05-05T03:59:42.756Z,7.16
2023-05-05T04:01:35.758Z,7.18
2023-05-05T04:03:27.687Z,7.19
2023-05-05T04:05:19.974Z,7.19
2023-05-05T04:07:11.550Z,7.20
2023-05-05T04:09:03.537Z,7.20
2023-05-05T04:10:57.480Z,7.20
2023-05-05T04:12:48.917Z,7.21
2023-05-05T04:14:41.021Z,7.22
2023-05-05T04:16:32.639Z,7.21
2023-05-05T04:18:24.386Z,7.22
2023-05-05T04:20:15.953Z,7.21
2023-05-05T04:22:07.534Z,7.22
2023-05-05T04:23:58.964Z,7.22
2023-05-05T04:25:50.220Z,7.23
2023-05-05T04:27:42.020Z,7.25
2023-05-05T04:29:33.647Z,7.28
2023-05-05T04:31:25.391Z,7.32
2023-05-05T04:33:17.169Z,7.39
2023-05-05T04:35:09.165Z,7.48
2023-05-05T04:37:01.232Z,7.58
2023-05-05T04:38:52.565Z,7.68
2023-05-05T04:40:44.245Z,7.81
2023-05-05T04:42:36.666Z,7.96
2023-05-05T04:44:28.194Z,8.15
2023-05-05T04:46:19.589Z,8.36
2023-05-05T04:48:11.418Z,8.58
2023-05-05T04:50:03.337Z,8.80
2023-05-05T04:51:55.563Z,9.07
2023-05-05T04:53:47.005Z,9.34
2023-05-05T04:55:41.520Z,9.60
2023-05-05T04:57:33.101Z,9.86
2023-05-05T04:59:24.757Z,10.09
2023-05-05T05:01:16.880Z,10.33
2023-05-05T05:03:08.541Z,10.53
2023-05-05T05:05:00.168Z,10.66
2023-05-05T05:06:51.544Z,10.76
2023-05-05T05:08:43.153Z,10.86
2023-05-05T05:10:36.730Z,10.97
2023-05-05T05:12:28.372Z,11.11
2023-05-05T05:14:19.966Z,11.26
2023-05-05T05:16:11.740Z,11.39
2023-05-05T05:18:03.333Z,11.48
2023-05-05T05:19:56.250Z,11.54
2023-05-05T05:21:48.082Z,11.67
2023-05-05T05:23:39.693Z,11.79
2023-05-05T05:25:31.306Z,11.94
2023-05-05T05:27:23.061Z,12.03
2023-05-05T05:29:14.416Z,12.07
2023-05-05T05:31:06.922Z,12.15
2023-05-05T05:32:58.611Z,12.24
2023-05-05T05:34:50.446Z,12.31
2023-05-05T05:36:42.121Z,12.39
2023-05-05T05:38:33.557Z,12.47
2023-05-05T05:40:25.161Z,12.55
2023-05-05T05:42:16.603Z,12.65
2023-05-05T05:44:08.141Z,12.68
2023-05-05T05:45:59.644Z,12.69
2023-05-05T05:47:52.184Z,12.66
2023-05-05T05:49:43.879Z,12.64
2023-05-05T05:51:35.322Z,12.64
2023-05-05T05:53:26.968Z,12.68
2023-05-05T05:55:18.627Z,12.76
2023-05-05T05:57:10.071Z,12.83
2023-05-05T05:59:01.876Z,12.99
2023-05-05T06:00:53.460Z,13.14
2023-05-05T06:02:45.160Z,13.29
2023-05-05T06:04:36.799Z,13.49
2023-05-05T06:06:28.344Z,13.62
2023-05-05T06:08:19.859Z,13.60
2023-05-05T06:10:26.578Z,13.60
2023-05-05T06:12:19.764Z,13.68
2023-05-05T06:14:11.551Z,13.80
2023-05-05T06:16:03.439Z,13.97
2023-05-05T06:17:55.943Z,14.19
2023-05-05T06:19:47.949Z,14.41
2023-05-05T06:21:39.567Z,14.57
2023-05-05T06:23:31.110Z,14.73
2023-05-05T06:25:22.970Z,14.84
2023-05-05T06:27:14.528Z,14.93
2023-05-05T06:29:06.874Z,15.07
2023-05-05T06:30:58.401Z,15.24
2023-05-05T06:32:50.265Z,15.38
2023-05-05T06:34:43.415Z,15.48
2023-05-05T06:36:35.817Z,15.65
2023-05-05T06:38:27.198Z,15.81
2023-05-05T06:40:18.776Z,16.02
2023-05-05T06:42:10.603Z,16.25
2023-05-05T06:44:02.124Z,16.43
2023-05-05T06:45:53.975Z,16.61
2023-05-05T06:47:45.509Z,16.86
2023-05-05T06:49:37.353Z,16.92
2023-05-05T06:51:29.869Z,16.84
2023-05-05T06:53:21.259Z,16.85
2023-05-05T06:55:13.135Z,16.90
2023-05-05T06:57:05.011Z,16.99
2023-05-05T06:58:56.851Z,17.02
2023-05-05T07:00:48.518Z,17.09
2023-05-05T07:02:41.265Z,17.37
2023-05-05T07:04:32.758Z,17.55
2023-05-05T07:06:24.127Z,17.69
2023-05-05T07:08:16.204Z,17.88
2023-05-05T07:10:09.950Z,17.97
2023-05-05T07:12:02.579Z,18.19
2023-05-05T07:13:54.287Z,18.68
2023-05-05T07:15:47.046Z,19.19
2023-05-05T07:17:41.782Z,19.30
2023-05-05T07:19:35.737Z,19.32
2023-05-05T07:21:47.733Z,19.45
2023-05-05T07:23:40.905Z,19.71
2023-05-05T07:25:32.677Z,19.86
2023-05-05T07:27:24.443Z,19.98
2023-05-05T07:29:16.727Z,20.09
2023-05-05T07:31:09.903Z,20.11
2023-05-05T07:33:01.911Z,20.13
2023-05-05T07:34:53.722Z,20.24
2023-05-05T07:37:07.294Z,20.37
2023-05-05T07:39:44.400Z,20.48
2023-05-05T07:41:39.235Z,20.80
2023-05-05T07:43:31.141Z,20.84
2023-05-05T07:45:22.854Z,20.89
2023-05-05T07:47:14.655Z,21.05
2023-05-05T07:49:06.889Z,21.23
2023-05-05T07:50:58.597Z,21.37
2023-05-05T07:52:56.390Z,21.49
2023-05-05T07:54:58.077Z,21.64
2023-05-05T07:56:49.618Z,21.80
2023-05-05T07:58:42.347Z,21.95
2023-05-05T08:00:34.247Z,21.97
2023-05-05T08:02:25.879Z,21.93
2023-05-05T08:04:17.856Z,22.06
2023-05-05T08:06:10.085Z,22.21
2023-05-05T08:08:01.562Z,22.34
2023-05-05T08:09:53.310Z,22.29
2023-05-05T08:11:45.153Z,22.40
2023-05-05T08:13:36.752Z,22.66
2023-05-05T08:15:28.197Z,22.81
2023-05-05T08:17:19.738Z,22.89
2023-05-05T08:19:21.570Z,23.05
2023-05-05T08:21:19.342Z,23.23
2023-05-05T08:23:10.953Z,23.33
2023-05-05T08:25:02.759Z,23.42
2023-05-05T08:26:55.575Z,23.45
2023-05-05T08:28:47.486Z,23.49
2023-05-05T08:30:39.276Z,23.64
2023-05-05T08:32:31.785Z,23.61
2023-05-05T08:34:23.505Z,23.61
2023-05-05T08:36:15.503Z,23.68
2023-05-05T08:38:06.970Z,23.71
2023-05-05T08:39:58.731Z,23.77
2023-05-05T08:41:50.237Z,23.88
2023-05-05T08:43:45.687Z,24.01
2023-05-05T08:45:40.915Z,24.13
2023-05-05T08:47:32.941Z,24.10
2023-05-05T08:49:25.441Z,24.12
2023-05-05T08:51:19.514Z,24.25
2023-05-05T08:53:16.013Z,24.46
2023-05-05T08:55:19.808Z,24.53
2023-05-05T08:57:12.718Z,24.55
2023-05-05T08:59:04.582Z,24.54
2023-05-05T09:00:56.944Z,24.41
2023-05-05T09:02:49.067Z,24.37
2023-05-05T09:04:41.018Z,24.47
2023-05-05T09:06:33.786Z,24.53
2023-05-05T09:08:26.068Z,24.67
2023-05-05T09:10:18.461Z,24.70
2023-05-05T09:12:10.005Z,24.80
2023-05-05T09:14:02.105Z,24.97
2023-05-05T09:15:53.746Z,25.16
2023-05-05T09:17:46.834Z,25.27
2023-05-05T09:20:07.336Z,25.37
2023-05-05T09:21:59.614Z,25.12
2023-05-05T09:24:11.511Z,24.92
2023-05-05T09:26:05.287Z,24.74
2023-05-05T09:27:57.150Z,24.82
2023-05-05T09:29:49.807Z,24.92
2023-05-05T09:31:41.385Z,25.10
2023-05-05T09:33:32.947Z,25.18
2023-05-05T09:35:24.392Z,25.44
2023-05-05T09:37:27.519Z,25.51
2023-05-05T09:39:20.613Z,25.51
2023-05-05T09:41:12.235Z,25.37
2023-05-05T09:43:04.129Z,25.43
2023-05-05T09:44:59.635Z,25.42
2023-05-05T09:46:55.306Z,25.34
2023-05-05T09:48:46.827Z,25.39
2023-05-05T09:50:44.793Z,25.37
2023-05-05T09:52:36.763Z,25.54
2023-05-05T09:54:30.130Z,25.51
2023-05-05T09:56:21.679Z,25.57
2023-05-05T09:58:20.814Z,25.81
2023-05-05T10:00:37.684Z,25.87
2023-05-05T10:02:32.920Z,25.85
2023-05-05T10:04:28.482Z,25.92
2023-05-05T10:06:22.112Z,25.95
2023-05-05T10:08:13.749Z,26.01
2023-05-05T10:10:11.051Z,26.11
2023-05-05T10:12:05.605Z,26.12
2023-05-05T10:13:57.500Z,26.14
2023-05-05T10:15:51.495Z,26.20
2023-05-05T10:18:02.381Z,26.14
2023-05-05T10:20:01.190Z,25.96
2023-05-05T10:21:54.974Z,25.96
2023-05-05T10:23:58.094Z,26.02
2023-05-05T10:26:02.906Z,25.97
2023-05-05T10:27:56.512Z,26.03
2023-05-05T10:30:07.389Z,25.99
2023-05-05T10:32:27.184Z,25.97
2023-05-05T10:34:29.854Z,26.09
2023-05-05T10:36:22.060Z,25.94
2023-05-05T10:38:14.523Z,26.01
2023-05-05T10:40:08.352Z,26.04
2023-05-05T10:42:04.472Z,26.18
2023-05-05T10:44:00.426Z,26.18
2023-05-05T10:45:53.767Z,25.99
2023-05-05T10:47:45.845Z,25.96
2023-05-05T10:49:57.521Z,25.92
2023-05-05T10:52:10.269Z,25.86
2023-05-05T10:54:29.436Z,25.84
2023-05-05T10:56:33.032Z,25.75
2023-05-05T10:58:51.172Z,25.89
2023-05-05T11:00:50.491Z,25.94
2023-05-05T11:02:42.256Z,26.14
2023-05-05T11:04:33.688Z,26.40
2023-05-05T11:06:25.421Z,26.54
2023-05-05T11:08:26.985Z,26.71
2023-05-05T11:10:20.770Z,26.96
2023-05-05T11:12:13.896Z,27.07
2023-05-05T11:14:20.149Z,26.87
2023-05-05T11:16:44.848Z,26.81
2023-05-05T11:18:38.326Z,26.72
2023-05-05T11:20:36.279Z,26.67
2023-05-05T11:22:28.980Z,26.66
2023-05-05T11:24:30.406Z,26.81
2023-05-05T11:26:49.411Z,27.01
2023-05-05T11:29:13.991Z,27.07
2023-05-05T11:31:35.924Z,26.73
2023-05-05T11:34:31.390Z,26.47
2023-05-05T11:36:53.566Z,26.57
2023-05-05T11:39:23.455Z,26.64
2023-05-05T11:41:33.486Z,26.77
2023-05-05T11:43:25.380Z,26.70
2023-05-05T11:45:24.085Z,26.56
2023-05-05T11:47:15.852Z,26.36
2023-05-05T11:49:09.473Z,26.34
2023-05-05T11:51:03.709Z,26.55
2023-05-05T11:52:55.203Z,26.74
2023-05-05T11:54:50.863Z,26.90
2023-05-05T11:56:53.633Z,26.99
2023-05-05T11:58:46.784Z,26.98
2023-05-05T12:00:38.304Z,27.01
2023-05-05T12:02:31.509Z,27.06
2023-05-05T12:04:23.419Z,26.97
2023-05-05T12:06:15.182Z,27.02
2023-05-05T12:08:06.891Z,27.04
2023-05-05T12:09:58.252Z,27.14
2023-05-05T12:11:56.194Z,27.02
2023-05-05T12:13:47.731Z,26.99
2023-05-05T12:15:39.049Z,27.06
2023-05-05T12:17:43.234Z,27.07
2023-05-05T12:19:36.675Z,26.83
2023-05-05T12:21:28.117Z,26.62
2023-05-05T12:23:20.321Z,26.55
2023-05-05T12:25:12.220Z,26.59
2023-05-05T12:27:11.872Z,26.65
2023-05-05T12:29:03.238Z,26.65
2023-05-05T12:30:59.052Z,26.73
2023-05-05T12:32:51.416Z,26.89
2023-05-05T12:34:42.867Z,26.95
2023-05-05T12:36:34.936Z,26.92
2023-05-05T12:38:26.597Z,26.77
2023-05-05T12:40:42.624Z,26.87
2023-05-05T12:42:39.039Z,26.99
2023-05-05T12:44:37.765Z,27.00
2023-05-05T12:46:29.871Z,27.03
2023-05-05T12:48:22.489Z,27.07
2023-05-05T12:50:13.782Z,27.05
2023-05-05T12:52:05.669Z,27.07
2023-05-05T12:54:08.226Z,27.07
2023-05-05T12:55:59.560Z,27.02
2023-05-05T12:58:06.815Z,26.99
2023-05-05T12:59:58.570Z,27.03
2023-05-05T13:01:52.818Z,27.09
2023-05-05T13:03:44.863Z,27.12
2023-05-05T13:05:36.746Z,27.25
2023-05-05T13:07:28.213Z,27.25
2023-05-05T13:09:34.083Z,27.15
2023-05-05T13:11:25.359Z,26.97
2023-05-05T13:13:17.486Z,26.99
2023-05-05T13:15:10.235Z,26.97
2023-05-05T13:17:02.085Z,27.00
2023-05-05T13:18:53.951Z,26.77
2023-05-05T13:20:45.580Z,26.48
2023-05-05T13:22:37.293Z,26.27
2023-05-05T13:24:46.398Z,26.25
2023-05-05T13:26:41.447Z,26.29
2023-05-05T13:28:33.323Z,26.49
2023-05-05T13:30:25.109Z,26.64
2023-05-05T13:32:16.688Z,26.66
2023-05-05T13:34:08.201Z,26.60
2023-05-05T13:35:59.721Z,26.66
2023-05-05T13:37:51.499Z,26.60
2023-05-05T13:39:43.313Z,26.56
2023-05-05T13:41:35.148Z,26.52
2023-05-05T13:43:26.662Z,26.53
2023-05-05T13:45:19.833Z,26.45
2023-05-05T13:47:11.446Z,26.53
2023-05-05T13:49:03.330Z,26.59
2023-05-05T13:50:55.009Z,26.43
2023-05-05T13:52:46.372Z,26.11
2023-05-05T13:54:38.097Z,26.09
2023-05-05T13:56:30.054Z,26.05
2023-05-05T13:58:22.075Z,26.01
2023-05-05T14:00:14.817Z,25.98
2023-05-05T14:02:07.767Z,25.95
2023-05-05T14:03:59.452Z,26.04
2023-05-05T14:05:51.013Z,26.04
2023-05-05T14:07:42.912Z,26.03
2023-05-05T14:09:34.712Z,26.06
2023-05-05T14:11:26.365Z,26.13
2023-05-05T14:13:17.746Z,26.13
2023-05-05T14:15:09.716Z,26.10
2023-05-05T14:17:01.664Z,26.18
2023-05-05T14:18:53.371Z,26.23
2023-05-05T14:20:44.655Z,26.31
2023-05-05T14:22:36.463Z,26.44
2023-05-05T14:24:27.812Z,26.58
2023-05-05T14:26:19.171Z,26.51
2023-05-05T14:28:11.079Z,26.31
2023-05-05T14:30:02.736Z,26.13
2023-05-05T14:31:54.638Z,25.92
2023-05-05T14:33:46.154Z,25.69
2023-05-05T14:35:37.865Z,25.50
2023-05-05T14:37:29.684Z,25.45
2023-05-05T14:39:21.502Z,25.37
2023-05-05T14:41:12.769Z,25.38
2023-05-05T14:43:04.556Z,25.33
2023-05-05T14:44:56.291Z,25.34
2023-05-05T14:46:49.741Z,25.29
2023-05-05T14:48:42.973Z,25.06
2023-05-05T14:50:34.797Z,24.78
2023-05-05T14:52:26.868Z,24.73
2023-05-05T14:54:27.223Z,24.75
2023-05-05T14:56:22.525Z,24.75
2023-05-05T14:58:14.111Z,24.81
2023-05-05T15:00:09.449Z,24.81
2023-05-05T15:02:01.399Z,24.78
2023-05-05T15:03:54.057Z,24.74
2023-05-05T15:05:45.721Z,24.80
2023-05-05T15:07:37.559Z,24.86
2023-05-05T15:09:28.990Z,24.81
2023-05-05T15:11:20.610Z,24.72
2023-05-05T15:13:12.528Z,24.61
2023-05-05T15:15:04.521Z,24.43
2023-05-05T15:16:56.019Z,24.32
2023-05-05T15:18:47.698Z,24.13
2023-05-05T15:20:39.577Z,23.87
2023-05-05T15:22:30.984Z,23.63
2023-05-05T15:24:22.272Z,23.42
2023-05-05T15:26:13.974Z,23.23
2023-05-05T15:28:05.734Z,23.13
2023-05-05T15:29:57.421Z,23.05
2023-05-05T15:31:48.918Z,22.99
2023-05-05T15:42:52.018Z,22.73
2023-05-05T15:44:43.484Z,22.75
2023-05-05T15:46:34.906Z,22.76
2023-05-05T15:48:26.445Z,22.75
2023-05-05T15:50:18.285Z,22.79
2023-05-05T15:52:10.245Z,22.83
2023-05-05T15:54:02.040Z,22.78
2023-05-05T15:55:53.853Z,22.71
2023-05-05T15:57:45.026Z,22.63
2023-05-05T15:59:36.516Z,22.55
2023-05-05T16:01:28.068Z,22.45
2023-05-05T16:03:20.082Z,22.30
2023-05-05T16:05:12.395Z,22.15
2023-05-05T16:07:03.757Z,22.07
2023-05-05T16:08:58.073Z,21.98
2023-05-05T16:10:49.928Z,21.89
2023-05-05T16:12:41.855Z,21.80
2023-05-05T16:14:33.698Z,21.70
2023-05-05T16:16:25.601Z,21.65
2023-05-05T16:18:16.932Z,21.58
2023-05-05T16:20:09.062Z,21.50
2023-05-05T16:22:01.647Z,21.42
2023-05-05T16:23:52.917Z,21.36
2023-05-05T16:25:44.984Z,21.25
2023-05-05T16:27:36.688Z,21.22
2023-05-05T16:29:28.260Z,21.14
2023-05-05T16:31:19.680Z,21.05
2023-05-05T16:33:11.326Z,20.98
2023-05-05T16:35:03.313Z,21.00
2023-05-05T16:36:55.114Z,21.09
2023-05-05T16:38:46.744Z,21.01
2023-05-05T16:40:38.538Z,20.93
2023-05-05T16:42:30.148Z,20.87
2023-05-05T16:44:21.811Z,20.82
2023-05-05T16:46:13.205Z,20.77
2023-05-05T16:48:07.441Z,20.71
2023-05-05T16:50:00.258Z,20.64
2023-05-05T16:51:53.658Z,20.55
2023-05-05T16:53:46.615Z,20.46
2023-05-05T16:55:39.114Z,20.37
2023-05-05T16:57:31.472Z,20.28
2023-05-05T16:59:22.816Z,20.19
2023-05-05T17:01:15.083Z,20.10
2023-05-05T17:03:06.829Z,20.01
2023-05-05T17:04:58.545Z,19.93
2023-05-05T17:06:51.079Z,19.84
2023-05-05T17:08:42.914Z,19.77
2023-05-05T17:10:34.313Z,19.67
2023-05-05T17:12:25.904Z,19.57
2023-05-05T17:14:17.602Z,19.52
2023-05-05T17:16:09.332Z,19.43
2023-05-05T17:18:00.932Z,19.30
2023-05-05T17:19:52.791Z,19.29
2023-05-05T17:21:44.246Z,19.24
2023-05-05T17:23:36.233Z,19.18
2023-05-05T17:25:28.344Z,19.13
2023-05-05T17:27:19.838Z,19.07
2023-05-05T17:29:13.088Z,19.02
2023-05-05T17:31:05.815Z,18.96
2023-05-05T17:32:57.641Z,18.90
2023-05-05T17:34:49.057Z,18.84
2023-05-05T17:36:40.562Z,18.79
2023-05-05T17:38:32.668Z,18.73
2023-05-05T17:40:25.206Z,18.67
2023-05-05T17:42:22.718Z,18.62
2023-05-05T17:44:14.585Z,18.56
2023-05-05T17:46:06.454Z,18.51
2023-05-05T17:47:57.924Z,18.44
2023-05-05T17:49:50.126Z,18.40
2023-05-05T17:51:41.875Z,18.35
2023-05-05T17:53:33.593Z,18.29
2023-05-05T17:55:25.079Z,18.24
2023-05-05T17:57:18.186Z,18.18
2023-05-05T17:59:09.578Z,18.12
2023-05-05T18:01:01.298Z,18.09
2023-05-05T18:02:53.152Z,18.03
2023-05-05T18:04:45.823Z,17.98
2023-05-05T18:06:37.264Z,17.93
2023-05-05T18:08:28.820Z,17.88
2023-05-05T18:10:20.785Z,17.83
2023-05-05T18:12:12.271Z,17.78
2023-05-05T18:14:04.059Z,17.75
2023-05-05T18:15:56.618Z,17.70
2023-05-05T18:17:48.170Z,17.67
2023-05-05T18:19:43.075Z,17.63
2023-05-05T18:21:34.308Z,17.57
2023-05-05T18:23:26.098Z,17.53
2023-05-05T18:25:19.184Z,17.48
2023-05-05T18:27:10.760Z,17.44
2023-05-05T18:29:02.575Z,17.37
2023-05-05T18:30:54.000Z,17.33
2023-05-05T18:32:45.826Z,17.28
2023-05-05T18:34:37.450Z,17.20
2023-05-05T18:36:29.123Z,17.10
2023-05-05T18:38:21.497Z,17.05
2023-05-05T18:40:13.559Z,16.97
2023-05-05T18:42:05.499Z,16.90
2023-05-05T18:43:57.184Z,16.80
2023-05-05T18:45:48.651Z,16.73
2023-05-05T18:47:41.549Z,16.65
2023-05-05T18:49:33.476Z,16.57
2023-05-05T18:51:25.061Z,16.49
2023-05-05T18:53:17.855Z,16.42
2023-05-05T18:55:09.790Z,16.34
2023-05-05T18:57:01.665Z,16.26
2023-05-05T18:58:53.421Z,16.20
2023-05-05T19:00:44.815Z,16.12
2023-05-05T19:02:36.525Z,16.06
2023-05-05T19:04:31.577Z,15.97
2023-05-05T19:06:23.277Z,15.92
2023-05-05T19:08:15.022Z,15.88
2023-05-05T19:10:07.602Z,15.81
2023-05-05T19:11:58.952Z,15.75
2023-05-05T19:13:51.433Z,15.69
2023-05-05T19:15:43.333Z,15.63
2023-05-05T19:17:35.258Z,15.57
2023-05-05T19:19:26.903Z,15.51
2023-05-05T19:21:18.423Z,15.45
2023-05-05T19:23:10.037Z,15.41
2023-05-05T19:25:01.572Z,15.36
2023-05-05T19:26:53.439Z,15.33
2023-05-05T19:28:44.947Z,15.28
2023-05-05T19:30:36.952Z,15.24
2023-05-05T19:32:29.089Z,15.19
2023-05-05T19:34:21.344Z,15.15
2023-05-05T19:36:13.000Z,15.10
2023-05-05T19:38:04.493Z,15.05
2023-05-05T19:39:56.557Z,14.97
2023-05-05T19:41:48.324Z,14.92
2023-05-05T19:43:39.847Z,14.86
2023-05-05T19:45:31.990Z,14.82
2023-05-05T19:47:23.621Z,14.77
2023-05-05T19:49:15.127Z,14.71
